Tonopah, NV (89049)

11:23 PDT le 30 mai 2015 (GMT -0700)
Tonopah | | Change Station
CLOSE
Current Station
Aéroport
Location: Tonopah,
Altitude: 5427 ft
Stations météo à proximité

Alt. 5427 ft 38.05 °N, 117.09 °W | Updated 27 minutes ago

Ciel dégagé
Ciel dégagé
81 ° F
Paraît 81 ° F
N
14
Vent Variable Vent de Sud
Gusts 20 mph

Aujourd'hui
Haut(e) -- | Bas -- ° F
--% Risque de précip.
Hier
Haut(e) -- | Bas -- ° F
Precip. -- pouce
5:28 AM 8:04 PM
Lune gibbeuse croissante, 91% visible
Pression 29.93 pouce
Visibilité 10.0 Miles terrestres
Nuages Ciel dégagé
Point de rosée 24 ° F
Humidité 12%
Précipitations 0.00 pouce
Profondeur de la couche neigeuse Non disponible.
UV 11 sur 12
Pollen 8.00 sur 12
Qualité de l'air Non disponible.
Flu Activity Sporadic
METAR KTPH 301756Z AUTO 19012G17KT 10SM CLR 27/M04 A3015 RMK AO2 SLP134 T02721044 10272 20117 51004

More Conditions Fewer Conditions

Pression 29.93 pouce
Visibilité 10.0 Miles terrestres
Nuages Ciel dégagé
Point de rosée 24 ° F
Humidité 12%
Précipitations 0.00 pouce
Profondeur de la couche neigeuse Non disponible.
UV 11 sur 12
Pollen 8.00 sur 12
Qualité de l'air Non disponible.
Flu Activity Sporadic
METAR KTPH 301756Z AUTO 19012G17KT 10SM CLR 27/M04 A3015 RMK AO2 SLP134 T02721044 10272 20117 51004

More Conditions Fewer Conditions

10-Day Weather Forecast

Almanac

Astronomie

May. 30, 2015 Lever Coucher
Temps réel
Crépuscule civil
Crépuscule nautique
Crépuscule astronomique
Lune
Durée de lumière visible
Longueur du jour
Tomorrow will be .
, % of the Moon is Illuminated

Extrêmes aujourd'hui

State Highs State Lows

Community

WunderPhotos

Upload Photos

1,825,595 Photos téléchargées !

WunderBlogs® & News

Nearby

Qualité de l'air

  Qualité de l'air Indice de la qualité de l'air Polluant
Not available.

Épaisseur de neige

Station Depth Altitude

Activité sismique

Ville Distance Mag. Time & Date
Minimum magnitude displayed is 2.5.

Températures des eaux côtières

Lieu Température

Stations

Stations météo à proximité

Emplacement de la station Température Refroidissement éolien Point de rosée Humidité Vent Precip. Alt. Mise à jour Type